Time;durP1;ratioP1;P1;durP2;ratioP2;P2;SDS_P1;SDS_P2;PMS_P1;PMS_P2;Temp;Humidity;BMP_temperature;BMP_pressure;BME280_temperature;BME280_humidity;BME280_pressure;Samples;Min_cycle;Max_cycle;Signal;HPM_P1;HPM_P2
2021/08/06 00:01:55;;;;;;;;;;;16.30;99.90;;;;;;5074527;28;20357;-80
2021/08/06 00:04:22;;;;;;;;;;;16.40;99.90;;;;;;5074376;28;19905;-79
2021/08/06 00:06:47;;;;;;;;;;;16.30;99.90;;;;;;5074359;28;19947;-79
2021/08/06 00:09:13;;;;;;;;;;;16.30;99.90;;;;;;5074260;28;20053;-79
2021/08/06 00:11:39;;;;;;;;;;;16.40;99.90;;;;;;5074205;28;20276;-80
2021/08/06 00:14:05;;;;;;;;;;;16.40;99.90;;;;;;5074175;28;19905;-80
2021/08/06 00:16:30;;;;;;;;;;;16.40;99.90;;;;;;5072619;28;20404;-79
2021/08/06 00:18:56;;;;;;;;;;;16.40;99.90;;;;;;5074050;28;19974;-79
2021/08/06 00:21:22;;;;;;;;;;;16.40;99.90;;;;;;5074253;28;19911;-79
2021/08/06 00:23:47;;;;;;;;;;;16.50;99.90;;;;;;5074046;28;20279;-79
2021/08/06 00:26:13;;;;;;;;;;;16.40;99.90;;;;;;5074085;28;19947;-80
2021/08/06 00:28:39;;;;;;;;;;;16.50;99.90;;;;;;5074059;28;19962;-79
2021/08/06 00:31:05;;;;;;;;;;;16.50;99.90;;;;;;5073949;28;19905;-78
2021/08/06 00:33:30;;;;;;;;;;;16.50;99.90;;;;;;5073948;28;19911;-80
2021/08/06 00:35:56;;;;;;;;;;;16.50;99.90;;;;;;5073970;28;20428;-80
2021/08/06 00:38:22;;;;;;;;;;;16.60;99.90;;;;;;5073779;28;19908;-80
2021/08/06 00:40:47;;;;;;;;;;;16.50;99.90;;;;;;5072477;28;20289;-78
2021/08/06 00:43:13;;;;;;;;;;;16.50;99.90;;;;;;5073753;28;19911;-80
2021/08/06 00:45:38;;;;;;;;;;;16.40;99.90;;;;;;5073908;28;19969;-79
2021/08/06 00:48:05;;;;;;;;;;;16.40;99.90;;;;;;5073805;28;20384;-80
2021/08/06 00:50:31;;;;;;;;;;;16.50;99.90;;;;;;5073768;28;19910;-79
2021/08/06 00:52:56;;;;;;;;;;;16.40;99.90;;;;;;5074136;28;19979;-78
2021/08/06 00:55:22;;;;;;;;;;;16.30;99.90;;;;;;5073625;28;20257;-80
2021/08/06 00:57:47;;;;;;;;;;;16.30;99.90;;;;;;5073819;28;20386;-81
2021/08/06 01:00:13;;;;;;;;;;;16.20;99.90;;;;;;5073703;28;19904;-80
2021/08/06 01:02:55;;;;;;;;;;;16.10;99.90;;;;;;5073673;28;19908;-80
2021/08/06 01:05:25;;;;;;;;;;;16.10;99.90;;;;;;5072270;28;20369;-80
2021/08/06 01:08:11;;;;;;;;;;;16.20;99.90;;;;;;5073722;28;19911;-80
2021/08/06 01:10:45;;;;;;;;;;;16.20;99.90;;;;;;5074042;28;19904;-79
2021/08/06 01:13:13;;;;;;;;;;;16.20;99.90;;;;;;5073657;28;19935;-80
2021/08/06 01:15:40;;;;;;;;;;;16.20;99.90;;;;;;5073451;28;19912;-80
2021/08/06 01:18:06;;;;;;;;;;;16.30;99.90;;;;;;5073489;28;19905;-79
2021/08/06 01:20:37;;;;;;;;;;;16.20;99.90;;;;;;5073888;28;19912;-79
2021/08/06 01:23:15;;;;;;;;;;;16.20;99.90;;;;;;5073655;28;20245;-80
2021/08/06 01:25:45;;;;;;;;;;;16.10;99.90;;;;;;5073534;28;20280;-79
2021/08/06 01:28:13;;;;;;;;;;;16.20;99.90;;;;;;5072035;28;19942;-79
2021/08/06 01:30:38;;;;;;;;;;;16.10;99.90;;;;;;5073571;28;19904;-79
2021/08/06 01:33:04;;;;;;;;;;;16.10;99.90;;;;;;5073332;28;19946;-78
2021/08/06 01:35:30;;;;;;;;;;;16.20;99.90;;;;;;5073284;28;20038;-80
2021/08/06 01:37:55;;;;;;;;;;;16.20;99.90;;;;;;5073192;28;19904;-80
2021/08/06 01:40:21;;;;;;;;;;;16.10;99.90;;;;;;5073226;28;19953;-80
2021/08/06 01:42:51;;;;;;;;;;;16.00;99.90;;;;;;5073574;28;20288;-80
2021/08/06 01:45:19;;;;;;;;;;;16.00;99.90;;;;;;5073146;28;20360;-80
2021/08/06 01:47:47;;;;;;;;;;;15.90;99.90;;;;;;5073094;28;19905;-80
2021/08/06 01:50:14;;;;;;;;;;;15.90;99.90;;;;;;5073115;28;20406;-78
2021/08/06 01:52:44;;;;;;;;;;;16.00;99.90;;;;;;5073125;28;19908;-80
2021/08/06 01:55:10;;;;;;;;;;;15.90;99.90;;;;;;5073078;28;19909;-79
2021/08/06 01:57:36;;;;;;;;;;;15.90;99.90;;;;;;5073013;28;19904;-80
2021/08/06 02:00:02;;;;;;;;;;;15.90;99.90;;;;;;5072962;28;19908;-79
2021/08/06 02:02:28;;;;;;;;;;;15.90;99.90;;;;;;5073445;28;19912;-79
2021/08/06 02:04:53;;;;;;;;;;;15.90;99.90;;;;;;5075361;28;19904;-78
2021/08/06 02:07:19;;;;;;;;;;;16.00;99.90;;;;;;5076883;28;19908;-80
2021/08/06 02:09:45;;;;;;;;;;;16.10;99.90;;;;;;5076633;28;20038;-79
2021/08/06 02:12:11;;;;;;;;;;;16.00;99.90;;;;;;5076505;28;19912;-79
2021/08/06 02:14:37;;;;;;;;;;;16.10;99.90;;;;;;5076909;28;19905;-80
2021/08/06 02:17:02;;;;;;;;;;;16.10;99.90;;;;;;5076011;28;19913;-80
2021/08/06 02:19:30;;;;;;;;;;;16.20;99.90;;;;;;5076500;28;20070;-79
2021/08/06 02:21:58;;;;;;;;;;;16.20;99.90;;;;;;5076314;28;19912;-79
2021/08/06 02:24:25;;;;;;;;;;;16.30;99.90;;;;;;5076238;28;19987;-79
2021/08/06 02:26:51;;;;;;;;;;;16.30;99.90;;;;;;5076233;28;19911;-79
2021/08/06 02:29:18;;;;;;;;;;;16.30;99.90;;;;;;5076492;28;19912;-79
2021/08/06 02:31:44;;;;;;;;;;;16.30;99.90;;;;;;5076147;28;19904;-79
2021/08/06 02:34:10;;;;;;;;;;;16.40;99.90;;;;;;5076070;28;20288;-77
2021/08/06 02:36:36;;;;;;;;;;;16.40;99.90;;;;;;5076516;28;19913;-80
2021/08/06 02:39:04;;;;;;;;;;;16.40;99.90;;;;;;5074627;28;19916;-79
2021/08/06 02:41:29;;;;;;;;;;;16.40;99.90;;;;;;5076208;28;19944;-81
2021/08/06 02:43:55;;;;;;;;;;;16.40;99.90;;;;;;5075931;28;19958;-78
2021/08/06 02:46:21;;;;;;;;;;;16.50;99.90;;;;;;5074550;28;20388;-79
2021/08/06 02:48:47;;;;;;;;;;;16.50;99.90;;;;;;5075849;28;19904;-78
2021/08/06 02:51:12;;;;;;;;;;;16.50;99.90;;;;;;5075824;28;19905;-80
2021/08/06 02:53:38;;;;;;;;;;;16.50;99.90;;;;;;5075794;28;19904;-78
2021/08/06 02:56:04;;;;;;;;;;;16.50;99.90;;;;;;5075748;28;19908;-81
2021/08/06 02:58:30;;;;;;;;;;;16.50;99.90;;;;;;5075890;28;20261;-79
2021/08/06 03:00:56;;;;;;;;;;;16.50;99.90;;;;;;5075615;28;19950;-79
2021/08/06 03:03:21;;;;;;;;;;;16.50;99.90;;;;;;5075657;28;19908;-79
2021/08/06 03:05:47;;;;;;;;;;;16.50;99.90;;;;;;5075583;28;20057;-79
2021/08/06 03:08:12;;;;;;;;;;;16.40;99.90;;;;;;5075703;28;19911;-81
2021/08/06 03:10:39;;;;;;;;;;;16.50;99.90;;;;;;5075503;28;19911;-80
2021/08/06 03:13:05;;;;;;;;;;;16.50;99.90;;;;;;5075558;28;19967;-80
2021/08/06 03:15:30;;;;;;;;;;;16.50;99.90;;;;;;5074090;28;19920;-80
2021/08/06 03:17:56;;;;;;;;;;;16.40;99.90;;;;;;5075269;28;19961;-80
2021/08/06 03:20:22;;;;;;;;;;;16.50;99.90;;;;;;5073969;28;20357;-79
2021/08/06 03:22:49;;;;;;;;;;;16.40;99.90;;;;;;5075267;28;19905;-79
2021/08/06 03:25:15;;;;;;;;;;;16.40;99.90;;;;;;5075134;28;19908;-79
2021/08/06 03:27:40;;;;;;;;;;;16.40;99.90;;;;;;5075123;28;19904;-80
2021/08/06 03:30:08;;;;;;;;;;;16.30;99.90;;;;;;5075519;28;20459;-79
2021/08/06 03:32:33;;;;;;;;;;;16.30;99.90;;;;;;5074990;28;19969;-81
2021/08/06 03:34:59;;;;;;;;;;;16.40;99.90;;;;;;5075017;28;19908;-80
2021/08/06 03:37:25;;;;;;;;;;;16.30;99.90;;;;;;5074926;28;20280;-80
2021/08/06 03:39:50;;;;;;;;;;;16.30;99.90;;;;;;5075187;28;20356;-79
2021/08/06 03:42:16;;;;;;;;;;;16.30;99.90;;;;;;5074964;28;20432;-80
2021/08/06 03:44:41;;;;;;;;;;;16.30;99.90;;;;;;5074755;28;19905;-80
2021/08/06 03:47:07;;;;;;;;;;;16.30;99.90;;;;;;5074704;28;19905;-79
2021/08/06 03:49:33;;;;;;;;;;;16.30;99.90;;;;;;5074656;28;19905;-79
2021/08/06 03:51:58;;;;;;;;;;;16.30;99.90;;;;;;5074902;28;19911;-79
2021/08/06 03:54:24;;;;;;;;;;;16.30;99.90;;;;;;5074530;28;19912;-79
2021/08/06 03:56:49;;;;;;;;;;;16.40;99.90;;;;;;5074660;28;19908;-80
2021/08/06 03:59:15;;;;;;;;;;;16.30;99.90;;;;;;5074430;28;20053;-78
2021/08/06 04:01:41;;;;;;;;;;;16.30;99.90;;;;;;5074591;28;20361;-79
2021/08/06 04:04:08;;;;;;;;;;;16.30;99.90;;;;;;5074605;28;19904;-79
2021/08/06 04:06:34;;;;;;;;;;;16.30;99.90;;;;;;5074292;28;19983;-78
2021/08/06 04:08:59;;;;;;;;;;;16.30;99.90;;;;;;5073001;28;19916;-80
2021/08/06 04:11:25;;;;;;;;;;;16.30;99.90;;;;;;5074243;28;19908;-79
2021/08/06 04:13:50;;;;;;;;;;;16.20;99.90;;;;;;5074241;28;19911;-80
2021/08/06 04:16:16;;;;;;;;;;;16.20;99.90;;;;;;5073950;28;20331;-79
2021/08/06 04:18:42;;;;;;;;;;;16.10;99.90;;;;;;5074045;28;19924;-80
2021/08/06 04:21:07;;;;;;;;;;;16.00;99.90;;;;;;5072757;28;19905;-79
2021/08/06 04:23:33;;;;;;;;;;;16.10;99.90;;;;;;5073979;28;19904;-79
2021/08/06 04:25:58;;;;;;;;;;;16.00;99.90;;;;;;5073832;28;19904;-79
2021/08/06 04:28:24;;;;;;;;;;;16.00;99.90;;;;;;5073982;28;19934;-79
2021/08/06 04:30:50;;;;;;;;;;;16.00;99.90;;;;;;5073955;28;20399;-80
2021/08/06 04:33:15;;;;;;;;;;;16.00;99.90;;;;;;5073901;28;20370;-79
2021/08/06 04:35:41;;;;;;;;;;;16.10;99.90;;;;;;5073888;28;19905;-80
2021/08/06 04:38:07;;;;;;;;;;;16.10;99.90;;;;;;5073804;28;19905;-81
2021/08/06 04:40:32;;;;;;;;;;;16.10;99.90;;;;;;5073890;28;20037;-79
2021/08/06 04:42:58;;;;;;;;;;;16.00;99.90;;;;;;5073786;28;20357;-79
2021/08/06 04:45:23;;;;;;;;;;;16.10;99.90;;;;;;5073772;28;19911;-79
2021/08/06 04:47:50;;;;;;;;;;;16.10;99.90;;;;;;5074023;28;19971;-80
2021/08/06 04:50:17;;;;;;;;;;;16.10;99.90;;;;;;5073880;28;19974;-80
2021/08/06 04:52:43;;;;;;;;;;;16.10;99.90;;;;;;5073801;28;20277;-80
2021/08/06 04:55:09;;;;;;;;;;;16.20;99.90;;;;;;5074118;28;19904;-79
2021/08/06 04:57:34;;;;;;;;;;;16.20;99.90;;;;;;5073600;28;19958;-79
2021/08/06 05:00:00;;;;;;;;;;;16.20;99.90;;;;;;5073772;28;19912;-79
2021/08/06 05:02:25;;;;;;;;;;;16.20;99.90;;;;;;5073679;28;19966;-78
2021/08/06 05:04:51;;;;;;;;;;;16.10;99.90;;;;;;5072345;28;19911;-80
2021/08/06 05:07:17;;;;;;;;;;;16.00;99.90;;;;;;5073537;28;20275;-78
2021/08/06 05:09:44;;;;;;;;;;;16.00;99.90;;;;;;5073765;28;19958;-80
2021/08/06 05:12:09;;;;;;;;;;;16.00;99.90;;;;;;5073718;28;19915;-79
2021/08/06 05:14:35;;;;;;;;;;;16.00;99.90;;;;;;5073607;28;20003;-79
2021/08/06 05:17:00;;;;;;;;;;;15.80;99.90;;;;;;5073087;28;19920;-79
2021/08/06 05:19:26;;;;;;;;;;;15.80;99.90;;;;;;5073403;28;19912;-80
2021/08/06 05:21:52;;;;;;;;;;;15.80;99.90;;;;;;5073404;28;19912;-78
2021/08/06 05:24:17;;;;;;;;;;;15.70;99.90;;;;;;5073373;28;20280;-79
2021/08/06 05:26:43;;;;;;;;;;;15.80;99.90;;;;;;5073460;28;19911;-79
2021/08/06 05:29:08;;;;;;;;;;;15.90;99.90;;;;;;5072085;28;20250;-80
2021/08/06 05:31:34;;;;;;;;;;;16.00;99.90;;;;;;5072043;28;19904;-80
2021/08/06 05:34:00;;;;;;;;;;;16.10;99.90;;;;;;5073372;28;20368;-78
2021/08/06 05:36:25;;;;;;;;;;;16.10;99.90;;;;;;5073301;28;19948;-79
2021/08/06 05:38:51;;;;;;;;;;;16.30;99.90;;;;;;5076406;28;20273;-80
2021/08/06 05:41:17;;;;;;;;;;;16.30;99.90;;;;;;5077207;28;19954;-80
2021/08/06 05:43:44;;;;;;;;;;;16.50;99.90;;;;;;5077118;28;19908;-80
2021/08/06 05:46:09;;;;;;;;;;;16.50;99.90;;;;;;5077147;28;19950;-79
2021/08/06 05:48:35;;;;;;;;;;;16.60;99.90;;;;;;5076968;28;19904;-79
2021/08/06 05:51:01;;;;;;;;;;;16.60;99.90;;;;;;5076918;28;19904;-79
2021/08/06 05:53:27;;;;;;;;;;;16.60;99.90;;;;;;5076916;28;19954;-79
2021/08/06 05:55:52;;;;;;;;;;;16.50;99.90;;;;;;5076832;28;19911;-79
2021/08/06 05:58:18;;;;;;;;;;;16.60;99.90;;;;;;5076677;28;19978;-79
2021/08/06 06:00:43;;;;;;;;;;;16.60;99.90;;;;;;5076983;28;19936;-80
2021/08/06 06:03:09;;;;;;;;;;;16.60;99.90;;;;;;5076989;28;19939;-80
2021/08/06 06:05:34;;;;;;;;;;;16.60;99.90;;;;;;5076916;28;19987;-80
2021/08/06 06:08:00;;;;;;;;;;;16.70;99.90;;;;;;5076616;28;19993;-80
2021/08/06 06:10:26;;;;;;;;;;;16.70;99.90;;;;;;5076651;28;20372;-79
2021/08/06 06:12:52;;;;;;;;;;;16.80;99.90;;;;;;5076632;28;19904;-81
2021/08/06 06:15:18;;;;;;;;;;;16.90;99.90;;;;;;5076480;28;20335;-81
2021/08/06 06:17:44;;;;;;;;;;;16.90;99.90;;;;;;5076593;28;19904;-79
2021/08/06 06:20:10;;;;;;;;;;;17.00;99.90;;;;;;5076336;28;19916;-80
2021/08/06 06:22:36;;;;;;;;;;;16.90;99.90;;;;;;5076533;28;19908;-79
2021/08/06 06:25:01;;;;;;;;;;;16.90;99.90;;;;;;5076258;28;19911;-79
2021/08/06 06:27:27;;;;;;;;;;;17.00;99.90;;;;;;5076369;28;19904;-79
2021/08/06 06:29:53;;;;;;;;;;;17.10;99.90;;;;;;5076241;28;19904;-78
2021/08/06 06:32:18;;;;;;;;;;;17.10;99.90;;;;;;5076247;28;19912;-79
2021/08/06 06:34:44;;;;;;;;;;;17.20;99.90;;;;;;5076170;28;19986;-79
2021/08/06 06:37:10;;;;;;;;;;;17.30;99.90;;;;;;5074836;28;20368;-79
2021/08/06 06:39:35;;;;;;;;;;;17.30;99.90;;;;;;5075987;28;19908;-80
2021/08/06 06:42:01;;;;;;;;;;;17.40;99.90;;;;;;5076012;28;19997;-80
2021/08/06 06:44:26;;;;;;;;;;;17.30;99.90;;;;;;5076315;28;19911;-80
2021/08/06 06:46:52;;;;;;;;;;;17.30;99.90;;;;;;5076067;28;19971;-78
2021/08/06 06:49:18;;;;;;;;;;;17.20;99.90;;;;;;5075764;28;19918;-79
2021/08/06 06:51:43;;;;;;;;;;;17.30;99.90;;;;;;5075913;28;19911;-80
2021/08/06 06:54:09;;;;;;;;;;;17.40;99.90;;;;;;5075786;28;19912;-79
2021/08/06 06:56:34;;;;;;;;;;;17.60;99.90;;;;;;5076263;28;19905;-80
2021/08/06 06:59:00;;;;;;;;;;;17.50;99.90;;;;;;5075855;28;20356;-80
2021/08/06 07:01:25;;;;;;;;;;;17.50;99.90;;;;;;5075896;28;19920;-78
2021/08/06 07:03:51;;;;;;;;;;;17.60;99.90;;;;;;5075951;28;19905;-79
2021/08/06 07:06:20;;;;;;;;;;;17.70;99.90;;;;;;5075388;28;19904;-80
2021/08/06 07:08:46;;;;;;;;;;;17.80;99.90;;;;;;5075576;28;19904;-81
2021/08/06 07:11:12;;;;;;;;;;;17.90;99.90;;;;;;5075428;28;20276;-80
2021/08/06 07:13:38;;;;;;;;;;;17.90;99.90;;;;;;5075396;28;19904;-79
2021/08/06 07:16:05;;;;;;;;;;;17.80;99.90;;;;;;5074995;28;19912;-79
2021/08/06 07:18:31;;;;;;;;;;;18.00;99.90;;;;;;5073882;28;20330;-80
2021/08/06 07:21:00;;;;;;;;;;;18.00;99.90;;;;;;5075340;28;19979;-80
2021/08/06 07:23:26;;;;;;;;;;;18.20;99.90;;;;;;5074039;28;19909;-80
2021/08/06 07:25:52;;;;;;;;;;;18.40;99.90;;;;;;5075179;28;19958;-80
2021/08/06 07:28:17;;;;;;;;;;;18.20;99.90;;;;;;5073762;28;19948;-80
2021/08/06 07:30:43;;;;;;;;;;;18.10;99.90;;;;;;5075075;28;20392;-80
2021/08/06 07:33:09;;;;;;;;;;;18.30;99.90;;;;;;5075047;28;19916;-80
2021/08/06 07:35:34;;;;;;;;;;;18.50;99.90;;;;;;5075372;28;20368;-80
2021/08/06 07:38:00;;;;;;;;;;;18.30;99.90;;;;;;5075514;28;19915;-81
2021/08/06 07:40:26;;;;;;;;;;;19.20;99.90;;;;;;5074844;28;20339;-80
2021/08/06 07:42:53;;;;;;;;;;;19.60;99.90;;;;;;5074681;28;19908;-79
2021/08/06 07:45:19;;;;;;;;;;;19.70;99.90;;;;;;5074814;28;19911;-80
2021/08/06 07:47:44;;;;;;;;;;;19.80;99.90;;;;;;5074702;28;19905;-80
2021/08/06 07:50:10;;;;;;;;;;;19.60;99.90;;;;;;5074960;28;19908;-80
2021/08/06 07:52:36;;;;;;;;;;;19.30;99.90;;;;;;5074651;28;20360;-79
2021/08/06 07:55:02;;;;;;;;;;;19.30;99.90;;;;;;5074568;28;20277;-80
2021/08/06 07:57:28;;;;;;;;;;;19.40;99.90;;;;;;5074472;28;20309;-80
2021/08/06 07:59:54;;;;;;;;;;;19.40;99.90;;;;;;5074768;28;19955;-80
2021/08/06 08:02:21;;;;;;;;;;;18.90;99.90;;;;;;5074155;28;19908;-80
2021/08/06 08:04:47;;;;;;;;;;;18.50;99.90;;;;;;5074365;28;19908;-80
2021/08/06 08:07:13;;;;;;;;;;;18.30;99.90;;;;;;5074361;28;19910;-80
2021/08/06 08:09:38;;;;;;;;;;;18.30;99.90;;;;;;5074442;28;19995;-78
2021/08/06 08:12:04;;;;;;;;;;;18.20;99.90;;;;;;5074560;28;19931;-80
2021/08/06 08:14:30;;;;;;;;;;;18.30;99.90;;;;;;5074315;28;19908;-79
2021/08/06 08:16:56;;;;;;;;;;;18.40;99.90;;;;;;5073780;28;19916;-79
2021/08/06 08:19:21;;;;;;;;;;;18.20;99.90;;;;;;5074091;28;19912;-79
2021/08/06 08:21:47;;;;;;;;;;;18.10;99.90;;;;;;5072914;28;19904;-79
2021/08/06 08:24:13;;;;;;;;;;;18.20;99.90;;;;;;5073976;28;19904;-79
2021/08/06 08:26:40;;;;;;;;;;;18.30;99.90;;;;;;5074083;28;19905;-80
2021/08/06 08:29:05;;;;;;;;;;;18.70;99.90;;;;;;5073995;28;19953;-80
2021/08/06 08:31:31;;;;;;;;;;;19.60;99.90;;;;;;5074325;28;19999;-80
2021/08/06 08:33:57;;;;;;;;;;;20.00;99.90;;;;;;5074182;28;19926;-80
2021/08/06 08:36:22;;;;;;;;;;;19.90;99.90;;;;;;5073992;28;19904;-80
2021/08/06 08:38:48;;;;;;;;;;;19.80;99.90;;;;;;5073894;28;19943;-81
2021/08/06 08:41:14;;;;;;;;;;;18.90;99.90;;;;;;5073814;28;20253;-80
2021/08/06 08:45:25;;;;;;;16.63;7.10;;;17.50;99.90;;;;;;5131683;27;20291;-76
2021/08/06 08:47:52;;;;;;;62.50;36.67;;;17.50;99.90;;;;;;5111090;28;20514;-78
2021/08/06 08:50:19;;;;;;;29.88;15.13;;;18.00;99.90;;;;;;5111071;28;20468;-77
2021/08/06 08:52:45;;;;;;;79.38;58.85;;;18.70;99.90;;;;;;5092751;28;20027;-78
2021/08/06 08:55:12;;;;;;;13.07;6.45;;;18.70;99.90;;;;;;5110966;28;20028;-76
2021/08/06 08:57:37;;;;;;;55.25;47.65;;;18.80;99.90;;;;;;5110916;28;20043;-77
2021/08/06 09:00:09;;;;;;;26.45;13.23;;;19.50;99.90;;;;;;5110867;28;20058;-79
2021/08/06 09:02:40;;;;;;;15.48;8.27;;;20.40;99.90;;;;;;5110759;28;20015;-77
2021/08/06 09:05:26;;;;;;;36.10;18.35;;;20.90;99.90;;;;;;5110310;28;20599;-78
2021/08/06 09:08:18;;;;;;;190.43;137.05;;;21.30;99.90;;;;;;5109219;28;20380;-78
2021/08/06 09:10:44;;;;;;;205.68;149.13;;;20.60;99.90;;;;;;5111079;28;20065;-80
2021/08/06 09:13:09;;;;;;;47.67;29.67;;;20.10;99.90;;;;;;5110697;28;20024;-79
2021/08/06 09:15:56;;;;;;;78.35;53.50;;;20.30;99.90;;;;;;5110661;28;20586;-80
2021/08/06 09:18:43;;;;;;;187.43;87.82;;;20.50;99.90;;;;;;5110556;28;20019;-78
2021/08/06 09:21:15;;;;;;;27.13;12.40;;;19.60;99.90;;;;;;5110848;28;20435;-79
2021/08/06 09:23:45;;;;;;;30.35;13.05;;;19.50;99.90;;;;;;5088163;28;20024;-79
2021/08/06 09:26:45;;;;;;;36.17;18.45;;;19.50;99.90;;;;;;5090042;28;20099;-80
2021/08/06 09:29:21;;;;;;;26.52;13.05;;;19.30;99.90;;;;;;5085342;28;20036;-79
2021/08/06 09:31:53;;;;;;;41.85;21.70;;;19.10;99.90;;;;;;5089976;28;20379;-77
2021/08/06 09:34:26;;;;;;;34.13;19.20;;;19.00;99.90;;;;;;5071721;28;20024;-78
2021/08/06 09:37:00;;;;;;;43.28;22.73;;;18.90;99.90;;;;;;5090067;28;20036;-77
2021/08/06 09:39:43;;;;;;;14.83;6.80;;;19.10;99.90;;;;;;5090218;28;20108;-77
2021/08/06 09:42:35;;;;;;;40.92;31.48;;;20.80;99.90;;;;;;5090027;28;20262;-78
2021/08/06 09:45:07;;;;;;;68.13;53.13;;;21.80;99.90;;;;;;5068429;28;20085;-79
2021/08/06 09:47:35;;;;;;;63.13;49.47;;;21.60;99.90;;;;;;5069459;28;20020;-80
2021/08/06 09:50:06;;;;;;;97.80;72.47;;;22.10;99.90;;;;;;5069284;28;20064;-78
2021/08/06 09:52:37;;;;;;;58.85;42.63;;;22.20;99.90;;;;;;5069259;28;20051;-78
2021/08/06 09:55:06;;;;;;;90.03;65.50;;;22.80;99.90;;;;;;5065637;28;20051;-78
2021/08/06 10:00:18;;;;;;;27.52;21.27;;;24.30;97.70;;;;;;5055771;28;20525;-79
2021/08/06 10:02:43;;;;;;;58.08;44.17;;;24.00;97.00;;;;;;5055889;28;20079;-78
2021/08/06 10:05:12;;;;;;;44.63;39.92;;;23.50;99.90;;;;;;5055854;28;20033;-78
2021/08/06 10:07:43;;;;;;;100.22;89.35;;;24.10;98.10;;;;;;5055686;28;20454;-78
2021/08/06 10:10:21;;;;;;;17.95;13.35;;;23.70;98.30;;;;;;5055764;28;20029;-79
2021/08/06 10:12:48;;;;;;;42.60;33.55;;;23.50;99.30;;;;;;5055846;28;20025;-79
2021/08/06 10:15:15;;;;;;;127.72;87.70;;;22.70;99.90;;;;;;5055735;28;20088;-77
2021/08/06 10:17:42;;;;;;;34.00;22.65;;;22.30;99.90;;;;;;5055579;28;20032;-78
2021/08/06 10:20:11;;;;;;;96.25;68.82;;;22.00;99.90;;;;;;5055470;28;20607;-77
2021/08/06 10:22:37;;;;;;;11.63;5.90;;;22.00;99.90;;;;;;5055118;28;20036;-76
2021/08/06 10:25:07;;;;;;;99.80;70.10;;;22.20;99.90;;;;;;5037330;28;20398;-78
2021/08/06 10:27:34;;;;;;;10.93;5.97;;;21.40;99.90;;;;;;5055413;28;20024;-77
2021/08/06 10:30:10;;;;;;;42.55;27.92;;;22.00;99.90;;;;;;5055367;28;20024;-78
2021/08/06 10:32:38;;;;;;;9.82;5.72;;;22.20;99.90;;;;;;5055503;28;20474;-78
2021/08/06 10:35:19;;;;;;;20.75;16.17;;;22.30;99.90;;;;;;5055277;28;20079;-78
2021/08/06 10:37:55;;;;;;;39.67;24.33;;;21.90;99.90;;;;;;5055359;28;20021;-79
2021/08/06 10:40:37;;;;;;;132.13;93.20;;;22.00;99.90;;;;;;5055595;28;20040;-77
2021/08/06 10:43:11;;;;;;;18.73;10.82;;;21.50;99.90;;;;;;5055110;28;20064;-78
2021/08/06 10:45:46;;;;;;;38.30;22.00;;;21.80;99.90;;;;;;5055074;28;20104;-79
2021/08/06 10:48:31;;;;;;;67.88;52.83;;;22.50;99.90;;;;;;5037075;28;20489;-79
2021/08/06 10:51:12;;;;;;;118.68;99.45;;;23.70;98.50;;;;;;5055149;28;20489;-79
2021/08/06 10:53:58;;;;;;;78.18;69.20;;;25.20;94.40;;;;;;5055143;28;20051;-79
2021/08/06 10:56:30;;;;;;;73.55;66.45;;;25.40;93.50;;;;;;5026783;28;20087;-79
2021/08/06 10:59:13;;;;;;;46.17;41.42;;;27.10;90.80;;;;;;5054943;28;20052;-79
2021/08/06 11:01:45;;;;;;;91.78;82.88;;;26.20;90.10;;;;;;5054842;28;20024;-78
2021/08/06 11:04:11;;;;;;;87.88;76.32;;;26.40;87.70;;;;;;5055116;28;20347;-79
2021/08/06 11:06:39;;;;;;;292.95;246.10;;;26.00;88.30;;;;;;5053973;28;20036;-79
2021/08/06 11:09:23;;;;;;;62.90;56.72;;;24.10;92.10;;;;;;5054533;28;20025;-78
2021/08/06 11:12:01;;;;;;;79.78;65.68;;;23.30;96.10;;;;;;5054633;28;20021;-78
2021/08/06 11:14:29;;;;;;;33.58;27.77;;;23.20;96.20;;;;;;5036479;28;20040;-78
2021/08/06 11:17:16;;;;;;;63.67;49.80;;;23.50;96.10;;;;;;5054544;28;20025;-79
2021/08/06 11:19:49;;;;;;;112.18;97.15;;;23.60;95.70;;;;;;5054561;28;20025;-78
2021/08/06 11:22:18;;;;;;;18.30;13.63;;;23.80;95.30;;;;;;5054439;28;20025;-78
2021/08/06 11:24:48;;;;;;;18.05;12.68;;;23.90;94.70;;;;;;5036558;28;20055;-78
2021/08/06 11:27:16;;;;;;;38.88;34.67;;;23.10;95.10;;;;;;5036342;28;20033;-78
2021/08/06 11:29:43;;;;;;;32.67;23.60;;;23.20;95.50;;;;;;5054386;28;20385;-80
2021/08/06 11:32:14;;;;;;;13.93;12.48;;;24.10;93.40;;;;;;5054176;28;20025;-80
2021/08/06 11:34:56;;;;;;;70.75;64.10;;;25.90;91.30;;;;;;5054837;28;20021;-79
2021/08/06 11:37:27;;;;;;;37.92;34.50;;;24.90;91.70;;;;;;5054165;28;20104;-79
2021/08/06 11:40:00;;;;;;;17.58;15.88;;;25.00;91.10;;;;;;5054217;28;20040;-78
2021/08/06 11:42:26;;;;;;;84.55;75.57;;;24.90;92.60;;;;;;5036201;28;20448;-79
2021/08/06 11:44:55;;;;;;;124.18;99.35;;;24.40;91.90;;;;;;5053576;28;20048;-80
2021/08/06 11:47:41;;;;;;;55.33;48.13;;;23.90;91.40;;;;;;5036031;28;20032;-79
2021/08/06 11:50:10;;;;;;;54.83;48.95;;;23.60;94.00;;;;;;5035971;28;20059;-79
2021/08/06 11:52:44;;;;;;;76.97;68.07;;;24.10;93.10;;;;;;5054058;28;20021;-80
2021/08/06 11:55:16;;;;;;;154.27;125.93;;;24.00;90.80;;;;;;5053780;28;20032;-79
2021/08/06 11:57:46;;;;;;;83.18;73.82;;;23.60;91.50;;;;;;5053873;28;20513;-79
2021/08/06 12:00:26;;;;;;;124.28;95.25;;;23.20;92.30;;;;;;5053899;28;20051;-80
2021/08/06 12:03:13;;;;;;;26.45;23.67;;;24.10;91.10;;;;;;5035506;28;20032;-78
2021/08/06 12:05:42;;;;;;;97.43;86.78;;;24.90;89.70;;;;;;5053879;28;20021;-80
2021/08/06 12:08:25;;;;;;;126.90;108.95;;;24.20;88.20;;;;;;5053505;28;20029;-80
2021/08/06 12:11:07;;;;;;;35.08;31.23;;;24.40;90.20;;;;;;5053916;28;20071;-79
2021/08/06 12:13:33;;;;;;;152.55;129.07;;;25.70;86.00;;;;;;5053706;28;20071;-79
2021/08/06 12:16:14;;;;;;;69.45;62.72;;;25.40;82.70;;;;;;5053665;28;20078;-79
2021/08/06 12:19:01;;;;;;;116.05;103.38;;;25.50;81.10;;;;;;5035029;28;20029;-80
2021/08/06 12:21:38;;;;;;;274.52;230.38;;;25.70;81.60;;;;;;5053113;28;20541;-79
2021/08/06 12:24:11;;;;;;;25.35;22.70;;;25.30;80.10;;;;;;5053439;28;20029;-79
2021/08/06 12:26:49;;;;;;;44.25;40.45;;;26.30;79.00;;;;;;5053616;28;20024;-80
2021/08/06 12:29:29;;;;;;;114.50;102.38;;;26.30;79.10;;;;;;5053457;28;20049;-79
2021/08/06 12:32:01;;;;;;;21.15;18.60;;;24.50;79.90;;;;;;5053575;28;20045;-79
2021/08/06 12:34:30;;;;;;;154.05;134.88;;;25.00;84.80;;;;;;5053740;28;20079;-80
2021/08/06 12:37:08;;;;;;;20.40;18.50;;;28.40;68.00;;;;;;5035329;28;20546;-79
2021/08/06 12:39:49;;;;;;;222.20;196.98;;;29.20;64.10;;;;;;5053363;28;20033;-81
2021/08/06 12:42:17;;;;;;;89.35;80.47;;;28.50;63.30;;;;;;5053068;28;20017;-81
2021/08/06 12:44:56;;;;;;;338.58;260.52;;;28.80;61.60;;;;;;5052870;28;20045;-81
2021/08/06 12:47:22;;;;;;;75.45;68.13;;;28.60;61.20;;;;;;5053306;28;20024;-81
2021/08/06 12:49:58;;;;;;;18.33;16.38;;;28.80;59.00;;;;;;5035214;28;20039;-81
2021/08/06 12:52:35;;;;;;;74.25;62.55;;;30.00;57.50;;;;;;5052975;28;20096;-81
2021/08/06 12:55:18;;;;;;;34.80;31.60;;;29.80;57.10;;;;;;5053164;28;20029;-83
2021/08/06 12:57:45;;;;;;;115.60;95.30;;;30.20;57.70;;;;;;5035122;28;20044;-80
2021/08/06 13:00:20;;;;;;;142.35;127.93;;;29.60;57.20;;;;;;5053072;28;20496;-81
2021/08/06 13:03:04;;;;;;;66.10;59.35;;;29.60;57.20;;;;;;5034846;28;20454;-82
2021/08/06 13:05:58;;;;;;;13.82;11.52;;;26.70;62.50;;;;;;5053301;28;20037;-81
2021/08/06 13:08:27;;;;;;;322.30;248.45;;;27.60;63.90;;;;;;5044761;28;20033;-83
2021/08/06 13:11:02;;;;;;;47.15;42.63;;;27.60;58.30;;;;;;5053348;28;20104;-83
2021/08/06 13:13:31;;;;;;;58.38;52.75;;;29.00;61.40;;;;;;5052937;28;20025;-84
2021/08/06 13:15:58;;;;;;;165.52;130.48;;;30.80;57.10;;;;;;5052765;28;20104;-83
2021/08/06 13:18:24;;;;;;;86.20;78.07;;;29.90;52.50;;;;;;5052744;28;20025;-82
2021/08/06 13:20:51;;;;;;;39.65;35.70;;;29.10;58.30;;;;;;5052672;28;20029;-83
2021/08/06 13:23:17;;;;;;;102.15;84.38;;;27.10;61.80;;;;;;5052640;28;20024;-81
2021/08/06 13:25:44;;;;;;;58.17;44.55;;;25.50;65.30;;;;;;5052689;28;20022;-81
2021/08/06 13:28:11;;;;;;;14.82;12.80;;;25.00;72.30;;;;;;5052659;28;20048;-81
2021/08/06 13:30:38;;;;;;;16.40;14.63;;;26.50;69.50;;;;;;5035941;28;20032;-83
2021/08/06 13:33:05;;;;;;;311.13;211.57;;;28.60;64.80;;;;;;5056497;28;20025;-82
2021/08/06 13:35:31;;;;;;;163.93;147.98;;;28.40;60.20;;;;;;5056268;28;20029;-82
2021/08/06 13:38:00;;;;;;;106.57;86.10;;;26.70;62.70;;;;;;5056614;28;20029;-81
2021/08/06 13:40:26;;;;;;;165.52;129.52;;;25.60;67.80;;;;;;5056291;28;20025;-82
2021/08/06 13:42:53;;;;;;;50.92;43.88;;;26.80;66.00;;;;;;5056453;28;20406;-83
2021/08/06 13:45:19;;;;;;;55.28;40.58;;;28.10;65.30;;;;;;5055730;28;20049;-82